createdAt,value
2023-01-17T00:04:57.953Z,3.72
2023-01-17T00:10:02.275Z,3.74
2023-01-17T00:15:07.403Z,3.66
2023-01-17T00:20:14.188Z,3.70
2023-01-17T00:25:18.669Z,3.63
2023-01-17T00:30:22.474Z,3.55
2023-01-17T00:35:26.464Z,3.44
2023-01-17T00:40:28.616Z,3.41
2023-01-17T00:45:32.053Z,3.54
2023-01-17T00:50:36.432Z,3.45
2023-01-17T00:55:38.527Z,3.29
2023-01-17T01:00:42.259Z,3.48
2023-01-17T01:05:44.446Z,3.60
2023-01-17T01:10:48.435Z,3.66
2023-01-17T01:15:52.443Z,3.75
2023-01-17T01:20:54.585Z,3.82
2023-01-17T01:25:56.944Z,3.79
2023-01-17T01:31:01.361Z,3.83
2023-01-17T01:36:03.521Z,3.84
2023-01-17T01:41:06.452Z,3.69
2023-01-17T01:46:13.127Z,3.68
2023-01-17T01:51:19.757Z,3.63
2023-01-17T01:56:23.506Z,3.67
2023-01-17T02:01:27.435Z,3.73
2023-01-17T02:06:34.183Z,3.81
2023-01-17T02:11:37.923Z,3.95
2023-01-17T02:16:58.695Z,3.93
2023-01-17T02:22:23.220Z,3.92
2023-01-17T02:27:27.492Z,4.04
2023-01-17T02:32:45.509Z,4.16
2023-01-17T02:37:58.139Z,4.28
2023-01-17T02:43:07.886Z,4.24
2023-01-17T02:48:14.004Z,4.18
2023-01-17T02:53:30.363Z,4.13
2023-01-17T02:58:50.423Z,3.99
2023-01-17T03:03:58.953Z,3.97
2023-01-17T03:09:02.652Z,3.93
2023-01-17T03:14:04.819Z,3.89
2023-01-17T03:19:08.236Z,3.88
2023-01-17T03:24:11.758Z,3.78
2023-01-17T03:29:14.092Z,3.74
2023-01-17T03:34:17.561Z,3.74
2023-01-17T03:39:19.210Z,3.83
2023-01-17T03:44:21.339Z,3.96
2023-01-17T03:49:25.315Z,4.15
2023-01-17T03:54:27.463Z,4.21
2023-01-17T03:59:29.518Z,4.30
2023-01-17T04:04:33.468Z,4.33
2023-01-17T04:09:35.833Z,4.33
2023-01-17T04:14:37.940Z,4.37
2023-01-17T04:19:41.623Z,4.46
2023-01-17T04:24:43.518Z,4.57
2023-01-17T04:29:46.846Z,4.67
2023-01-17T04:34:50.240Z,4.66
2023-01-17T04:39:52.308Z,4.66
2023-01-17T04:44:54.440Z,4.64
2023-01-17T04:49:57.871Z,4.65
2023-01-17T04:55:00.030Z,4.64
2023-01-17T05:00:01.925Z,4.62
2023-01-17T05:05:09.183Z,4.60
2023-01-17T05:10:11.323Z,4.62
2023-01-17T05:15:13.503Z,4.68
2023-01-17T05:20:17.385Z,4.61
2023-01-17T05:25:19.228Z,4.59
2023-01-17T05:30:22.459Z,4.55
2023-01-17T05:35:28.163Z,4.52
2023-01-17T05:40:31.622Z,4.46
2023-01-17T05:45:33.990Z,4.40
2023-01-17T05:50:38.415Z,4.37
2023-01-17T05:55:41.474Z,4.29
2023-01-17T06:00:43.975Z,4.26
2023-01-17T06:05:48.556Z,4.25
2023-01-17T06:10:50.703Z,4.22
2023-01-17T06:15:52.873Z,4.20
2023-01-17T06:20:56.660Z,4.17
2023-01-17T06:26:02.744Z,4.22
2023-01-17T06:31:08.591Z,4.18
2023-01-17T06:36:12.161Z,4.18
2023-01-17T06:41:13.905Z,4.09
2023-01-17T06:46:15.736Z,4.04
2023-01-17T06:51:19.272Z,4.05
2023-01-17T06:56:21.473Z,4.09
2023-01-17T07:01:24.168Z,4.06
2023-01-17T07:06:27.331Z,4.06
2023-01-17T07:11:30.341Z,4.00
2023-01-17T07:16:34.326Z,3.96
2023-01-17T07:21:37.876Z,3.86
2023-01-17T07:26:40.077Z,3.72
2023-01-17T07:31:42.667Z,3.60
2023-01-17T07:36:46.264Z,3.56
2023-01-17T07:41:48.625Z,3.66
2023-01-17T07:46:51.219Z,3.86
2023-01-17T07:51:54.497Z,3.95
2023-01-17T07:56:56.294Z,4.19
2023-01-17T08:01:58.893Z,4.28
2023-01-17T08:07:02.669Z,4.35
2023-01-17T08:12:05.230Z,4.33
2023-01-17T08:17:07.602Z,4.37
2023-01-17T08:22:11.607Z,4.44
2023-01-17T08:27:14.074Z,4.39
2023-01-17T08:32:16.162Z,4.45
2023-01-17T08:37:19.776Z,4.44
2023-01-17T08:42:21.630Z,4.45
2023-01-17T08:47:23.599Z,4.59
2023-01-17T08:52:27.163Z,4.55
2023-01-17T08:57:29.395Z,4.70
2023-01-17T09:02:31.597Z,4.71
2023-01-17T09:07:34.995Z,4.73
2023-01-17T09:12:37.189Z,4.76
2023-01-17T09:17:39.115Z,4.73
2023-01-17T09:22:42.271Z,4.65
2023-01-17T09:27:45.783Z,4.69
2023-01-17T09:32:52.923Z,4.71
2023-01-17T09:37:57.350Z,4.43
2023-01-17T09:43:03.041Z,4.52
2023-01-17T09:48:10.442Z,4.62
2023-01-17T09:53:16.912Z,4.39
2023-01-17T09:58:23.274Z,4.64
2023-01-17T10:03:59.099Z,4.39
2023-01-17T10:09:32.985Z,4.32
2023-01-17T10:14:48.134Z,4.20
2023-01-17T10:20:03.325Z,4.20
2023-01-17T10:25:16.041Z,4.25
2023-01-17T10:30:23.200Z,4.17
2023-01-17T10:35:30.764Z,4.16
2023-01-17T10:40:41.676Z,4.12
2023-01-17T10:45:52.088Z,3.99
2023-01-17T10:51:01.971Z,4.02
2023-01-17T10:56:07.306Z,4.02
2023-01-17T11:01:18.340Z,3.75
2023-01-17T11:06:22.747Z,3.70
2023-01-17T11:11:29.434Z,3.38
2023-01-17T11:16:32.250Z,3.17
2023-01-17T11:21:36.477Z,3.60
2023-01-17T11:26:46.432Z,4.01
2023-01-17T11:31:48.503Z,3.75
2023-01-17T11:37:09.034Z,3.72
2023-01-17T11:42:32.849Z,5.76
2023-01-17T11:47:34.949Z,7.54
2023-01-17T11:52:37.385Z,6.01
2023-01-17T11:57:40.990Z,6.19
2023-01-17T12:03:10.697Z,5.82
2023-01-17T12:08:21.980Z,5.30
2023-01-17T12:13:39.873Z,5.42
2023-01-17T12:18:49.479Z,5.10
2023-01-17T12:24:39.358Z,4.55
2023-01-17T12:29:50.103Z,5.06
2023-01-17T12:35:00.016Z,4.40
2023-01-17T12:40:10.454Z,4.45
2023-01-17T12:45:18.602Z,4.68
2023-01-17T12:50:26.756Z,4.94
2023-01-17T12:55:36.296Z,4.90
2023-01-17T13:00:40.115Z,5.18
2023-01-17T13:05:45.576Z,5.52
2023-01-17T13:10:52.575Z,5.37
2023-01-17T13:15:59.828Z,5.01
2023-01-17T13:21:27.487Z,4.77
2023-01-17T13:26:43.786Z,4.78
2023-01-17T13:31:49.406Z,4.76
2023-01-17T13:37:11.443Z,4.75
2023-01-17T13:42:25.297Z,4.65
2023-01-17T13:47:41.365Z,4.96
2023-01-17T13:52:43.138Z,5.35
2023-01-17T13:57:45.555Z,5.64
2023-01-17T14:02:50.001Z,5.42
2023-01-17T14:07:57.522Z,5.62
2023-01-17T14:12:59.871Z,5.97
2023-01-17T14:18:05.276Z,5.41
2023-01-17T14:23:24.112Z,5.50
2023-01-17T14:28:31.150Z,5.18
2023-01-17T14:33:38.475Z,4.97
2023-01-17T14:38:42.886Z,4.83
2023-01-17T14:43:47.183Z,4.59
2023-01-17T14:48:51.421Z,4.40
2023-01-17T14:53:55.758Z,4.15
2023-01-17T14:59:06.038Z,3.87
2023-01-17T15:04:23.547Z,3.67
2023-01-17T15:09:28.943Z,3.45
2023-01-17T15:14:36.112Z,3.26
2023-01-17T15:19:44.497Z,3.05
2023-01-17T15:24:47.851Z,2.84
2023-01-17T15:29:50.182Z,2.62
2023-01-17T15:34:53.933Z,2.38
2023-01-17T15:40:07.399Z,2.25
2023-01-17T15:45:15.103Z,2.10
2023-01-17T15:50:30.686Z,1.86
2023-01-17T15:55:35.165Z,1.65
2023-01-17T16:00:38.980Z,1.41
2023-01-17T16:05:42.681Z,1.20
2023-01-17T16:10:45.709Z,1.05
2023-01-17T16:15:47.877Z,0.94
2023-01-17T16:20:56.792Z,0.85
2023-01-17T16:25:59.046Z,0.57
2023-01-17T16:31:01.094Z,0.40
2023-01-17T16:36:05.376Z,0.25
2023-01-17T16:41:07.175Z,0.16
2023-01-17T16:46:11.514Z,-0.08
2023-01-17T16:51:14.865Z,-0.24
2023-01-17T16:56:18.605Z,-0.17
2023-01-17T17:01:20.875Z,-0.22
2023-01-17T17:06:24.552Z,-0.44
2023-01-17T17:11:26.707Z,-0.46
2023-01-17T17:16:30.542Z,-0.50
2023-01-17T17:21:35.485Z,-0.65
2023-01-17T17:26:37.637Z,-0.68
2023-01-17T17:31:41.578Z,-0.89
2023-01-17T17:36:45.517Z,-1.01
2023-01-17T17:41:47.727Z,-1.01
2023-01-17T17:46:49.746Z,-1.15
2023-01-17T17:51:53.619Z,-1.16
2023-01-17T17:56:55.451Z,-1.24
2023-01-17T18:01:57.729Z,-1.30
2023-01-17T18:07:01.371Z,-1.39
2023-01-17T18:12:04.413Z,-1.49
2023-01-17T18:17:06.626Z,-1.55
2023-01-17T18:22:10.019Z,-1.62
2023-01-17T18:27:12.222Z,-1.89
2023-01-17T18:32:14.066Z,-2.00
2023-01-17T18:37:17.097Z,-2.02
2023-01-17T18:42:20.035Z,-2.11
2023-01-17T18:47:23.168Z,-2.17
2023-01-17T18:52:26.287Z,-2.11
2023-01-17T18:57:28.001Z,-2.29
2023-01-17T19:02:30.171Z,-2.35
2023-01-17T19:07:34.297Z,-2.35
2023-01-17T19:12:36.022Z,-2.46
2023-01-17T19:17:38.142Z,-2.15
2023-01-17T19:22:41.696Z,-1.76
2023-01-17T19:27:43.906Z,-2.09
2023-01-17T19:32:46.576Z,-1.74
2023-01-17T19:37:51.573Z,-1.92
2023-01-17T19:42:53.960Z,-2.00
2023-01-17T19:47:56.222Z,-1.76
2023-01-17T19:52:59.500Z,-1.91
2023-01-17T19:58:01.333Z,-1.85
2023-01-17T20:03:03.224Z,-1.97
2023-01-17T20:08:06.688Z,-2.11
2023-01-17T20:13:09.348Z,-2.15
2023-01-17T20:18:11.577Z,-2.31
2023-01-17T20:23:15.004Z,-2.39
2023-01-17T20:28:16.843Z,-2.46
2023-01-17T20:33:18.967Z,-2.24
2023-01-17T20:38:22.772Z,-2.42
2023-01-17T20:43:24.638Z,-2.45
2023-01-17T20:48:26.976Z,-2.55
2023-01-17T20:53:30.438Z,-2.80
2023-01-17T20:58:32.700Z,-2.77
2023-01-17T21:03:37.404Z,-2.70
2023-01-17T21:08:42.718Z,-2.77
2023-01-17T21:13:45.160Z,-2.78
2023-01-17T21:18:48.080Z,-2.91
2023-01-17T21:23:53.062Z,-2.98
2023-01-17T21:28:56.028Z,-2.97
2023-01-17T21:34:00.413Z,-3.12
2023-01-17T21:39:06.305Z,-3.05
2023-01-17T21:44:13.121Z,-3.28
2023-01-17T21:49:15.642Z,-3.23
2023-01-17T21:54:18.739Z,-3.36
2023-01-17T21:59:20.819Z,-3.22
2023-01-17T22:04:22.976Z,-3.37
2023-01-17T22:09:26.153Z,-3.38
2023-01-17T22:14:28.202Z,-3.34
2023-01-17T22:19:30.162Z,-3.49
2023-01-17T22:24:33.638Z,-3.48
2023-01-17T22:29:35.655Z,-3.60
2023-01-17T22:34:37.736Z,-3.65
2023-01-17T22:39:41.574Z,-3.59
2023-01-17T22:44:43.877Z,-3.76
2023-01-17T22:49:45.816Z,-3.76
2023-01-17T22:54:49.403Z,-3.79
2023-01-17T22:59:51.493Z,-3.94
2023-01-17T23:04:53.609Z,-4.03
2023-01-17T23:09:56.987Z,-4.01
2023-01-17T23:14:59.087Z,-3.92
2023-01-17T23:20:01.126Z,-3.87
2023-01-17T23:25:07.592Z,-4.03
2023-01-17T23:30:11.648Z,-4.13
2023-01-17T23:35:13.960Z,-4.11
2023-01-17T23:40:18.413Z,-4.03
2023-01-17T23:45:20.486Z,-4.24
2023-01-17T23:50:22.815Z,-4.25
2023-01-17T23:55:26.048Z,-4.14
